createdAt,value
2023-02-02T00:01:02.084Z,96765.06
2023-02-02T00:03:28.602Z,96770.03
2023-02-02T00:05:55.065Z,96754.56
2023-02-02T00:08:22.062Z,96756.34
2023-02-02T00:10:48.770Z,96758.88
2023-02-02T00:13:15.242Z,96752.81
2023-02-02T00:15:41.723Z,96745.91
2023-02-02T00:18:08.219Z,96748.38
2023-02-02T00:20:34.773Z,96743.66
2023-02-02T00:23:01.644Z,96742.94
2023-02-02T00:25:28.622Z,96741.63
2023-02-02T00:27:55.370Z,96744.97
2023-02-02T00:30:22.554Z,96741.75
2023-02-02T00:32:49.072Z,96745.00
2023-02-02T00:35:15.594Z,96748.09
2023-02-02T00:37:42.245Z,96743.56
2023-02-02T00:40:09.885Z,96746.66
2023-02-02T00:42:36.624Z,96738.31
2023-02-02T00:45:04.449Z,96741.78
2023-02-02T00:47:30.928Z,96742.25
2023-02-02T00:49:57.396Z,96741.19
2023-02-02T00:52:23.937Z,96736.75
2023-02-02T00:54:50.362Z,96729.50
2023-02-02T00:57:16.831Z,96727.94
2023-02-02T00:59:43.705Z,96725.59
2023-02-02T01:02:12.177Z,96723.94
2023-02-02T01:04:39.540Z,96717.84
2023-02-02T01:07:06.062Z,96723.22
2023-02-02T01:09:32.521Z,96727.38
2023-02-02T01:11:59.020Z,96729.50
2023-02-02T01:14:25.651Z,96731.78
2023-02-02T01:16:52.121Z,96732.84
2023-02-02T01:19:18.591Z,96739.97
2023-02-02T01:21:45.056Z,96738.31
2023-02-02T01:24:11.607Z,96744.16
2023-02-02T01:26:38.097Z,96736.19
2023-02-02T01:29:04.682Z,96736.66
2023-02-02T01:31:31.197Z,96739.53
2023-02-02T01:33:57.680Z,96744.50
2023-02-02T01:36:24.757Z,96738.81
2023-02-02T01:38:51.257Z,96737.00
2023-02-02T01:41:23.680Z,96743.81
2023-02-02T01:43:53.774Z,96738.31
2023-02-02T01:46:24.800Z,96737.38
2023-02-02T01:49:10.965Z,96734.28
2023-02-02T01:52:00.443Z,96738.91
2023-02-02T01:54:34.585Z,96745.72
2023-02-02T01:57:09.409Z,96745.84
2023-02-02T01:59:36.891Z,96747.59
2023-02-02T02:02:03.627Z,96736.88
2023-02-02T02:04:32.058Z,96740.72
2023-02-02T02:07:01.826Z,96742.41
2023-02-02T02:09:28.483Z,96745.22
2023-02-02T02:11:55.307Z,96739.53
2023-02-02T02:14:23.788Z,96747.00
2023-02-02T02:17:25.751Z,96753.38
2023-02-02T02:20:13.768Z,96752.66
2023-02-02T02:23:09.520Z,96755.94
2023-02-02T02:25:54.178Z,96749.41
2023-02-02T02:28:51.533Z,96754.53
2023-02-02T02:31:33.146Z,96748.44
2023-02-02T02:34:23.410Z,96756.41
2023-02-02T02:37:14.359Z,96753.16
2023-02-02T02:39:59.114Z,96762.38
2023-02-02T02:42:33.809Z,96769.84
2023-02-02T02:45:04.008Z,96770.19
2023-02-02T02:47:32.190Z,96768.28
2023-02-02T02:49:58.768Z,96768.03
2023-02-02T02:52:25.288Z,96760.31
2023-02-02T02:54:55.368Z,96769.47
2023-02-02T02:57:24.473Z,96766.63
2023-02-02T03:00:18.153Z,96761.81
2023-02-02T03:03:05.947Z,96755.53
2023-02-02T03:05:51.034Z,96760.66
2023-02-02T03:08:50.029Z,96754.22
2023-02-02T03:11:17.723Z,96745.41
2023-02-02T03:13:44.425Z,96741.19
2023-02-02T03:16:11.647Z,96738.00
2023-02-02T03:18:39.277Z,96732.75
2023-02-02T03:21:06.299Z,96738.00
2023-02-02T03:23:32.869Z,96731.84
2023-02-02T03:25:59.554Z,96740.03
2023-02-02T03:28:29.838Z,96729.94
2023-02-02T03:31:00.591Z,96737.81
2023-02-02T03:33:28.352Z,96739.25
2023-02-02T03:35:54.871Z,96737.81
2023-02-02T03:38:21.483Z,96725.69
2023-02-02T03:40:48.059Z,96732.59
2023-02-02T03:43:20.164Z,96735.66
2023-02-02T03:45:46.680Z,96737.69
2023-02-02T03:48:13.199Z,96731.34
2023-02-02T03:50:39.725Z,96728.50
2023-02-02T03:53:06.168Z,96729.69
2023-02-02T03:55:33.864Z,96736.22
2023-02-02T03:58:00.334Z,96728.03
2023-02-02T04:00:26.891Z,96726.59
2023-02-02T04:02:53.698Z,96742.78
2023-02-02T04:05:20.259Z,96744.53
2023-02-02T04:07:46.821Z,96739.19
2023-02-02T04:10:13.389Z,96735.34
2023-02-02T04:12:39.933Z,96746.38
2023-02-02T04:15:07.198Z,96747.31
2023-02-02T04:17:33.634Z,96745.91
2023-02-02T04:20:00.117Z,96747.66
2023-02-02T04:22:27.442Z,96746.38
2023-02-02T04:24:53.939Z,96739.81
2023-02-02T04:27:20.425Z,96741.41
2023-02-02T04:29:46.904Z,96744.47
2023-02-02T04:32:17.865Z,96755.66
2023-02-02T04:34:45.156Z,96753.56
2023-02-02T04:37:12.233Z,96754.94
2023-02-02T04:39:38.732Z,96750.44
2023-02-02T04:42:05.262Z,96757.13
2023-02-02T04:44:31.773Z,96756.63
2023-02-02T04:46:58.277Z,96763.53
2023-02-02T04:49:24.769Z,96757.56
2023-02-02T04:51:51.263Z,96766.88
2023-02-02T04:54:17.764Z,96769.00
2023-02-02T04:56:44.230Z,96759.84
2023-02-02T04:59:10.697Z,96770.56
2023-02-02T05:01:37.189Z,96766.66
2023-02-02T05:04:03.775Z,96768.31
2023-02-02T05:06:30.233Z,96767.38
2023-02-02T05:08:56.740Z,96766.19
2023-02-02T05:11:24.054Z,96765.97
2023-02-02T05:13:53.180Z,96773.22
2023-02-02T05:16:21.071Z,96782.84
2023-02-02T05:18:53.202Z,96781.69
2023-02-02T05:21:20.866Z,96785.25
2023-02-02T05:23:48.072Z,96784.28
2023-02-02T05:26:19.308Z,96773.69
2023-02-02T05:28:45.777Z,96779.66
2023-02-02T05:31:12.734Z,96785.19
2023-02-02T05:33:39.326Z,96778.66
2023-02-02T05:36:06.949Z,96778.78
2023-02-02T05:38:34.108Z,96778.19
2023-02-02T05:41:01.853Z,96788.91
2023-02-02T05:43:30.228Z,96792.00
2023-02-02T05:45:56.994Z,96785.19
2023-02-02T05:48:23.531Z,96777.47
2023-02-02T05:51:11.579Z,96775.00
2023-02-02T05:53:38.103Z,96777.25
2023-02-02T05:56:04.855Z,96772.59
2023-02-02T05:58:31.352Z,96771.84
2023-02-02T06:00:57.860Z,96777.38
2023-02-02T06:03:24.532Z,96779.28
2023-02-02T06:05:51.056Z,96782.13
2023-02-02T06:08:17.635Z,96784.03
2023-02-02T06:10:44.783Z,96785.97
2023-02-02T06:13:11.381Z,96792.00
2023-02-02T06:15:38.101Z,96793.31
2023-02-02T06:18:04.724Z,96796.91
2023-02-02T06:20:31.273Z,96800.94
2023-02-02T06:22:57.977Z,96806.66
2023-02-02T06:25:24.854Z,96804.16
2023-02-02T06:27:58.818Z,96801.19
2023-02-02T06:30:26.483Z,96808.34
2023-02-02T06:32:53.079Z,96802.16
2023-02-02T06:35:19.775Z,96800.72
2023-02-02T06:37:46.277Z,96810.00
2023-02-02T06:40:12.747Z,96809.66
2023-02-02T06:42:39.715Z,96799.88
2023-02-02T06:45:06.497Z,96798.81
2023-02-02T06:47:33.366Z,96798.81
2023-02-02T06:49:59.918Z,96798.09
2023-02-02T06:52:26.596Z,96803.31
2023-02-02T06:54:53.047Z,96798.94
2023-02-02T06:57:19.532Z,96794.28
2023-02-02T06:59:45.983Z,96792.97
2023-02-02T07:02:12.804Z,96795.47
2023-02-02T07:04:39.728Z,96799.28
2023-02-02T07:07:06.268Z,96801.66
2023-02-02T07:09:33.979Z,96802.94
2023-02-02T07:12:00.460Z,96816.19
2023-02-02T07:14:27.291Z,96810.47
2023-02-02T07:16:53.979Z,96807.13
2023-02-02T07:19:20.475Z,96809.38
2023-02-02T07:21:46.946Z,96809.38
2023-02-02T07:24:13.458Z,96811.78
2023-02-02T07:26:39.950Z,96819.88
2023-02-02T07:29:06.508Z,96816.91
2023-02-02T07:31:36.050Z,96809.03
2023-02-02T07:34:02.984Z,96817.03
2023-02-02T07:36:29.528Z,96818.00
2023-02-02T07:38:55.993Z,96828.09
2023-02-02T07:41:22.486Z,96821.06
2023-02-02T07:43:50.197Z,96825.53
2023-02-02T07:46:17.836Z,96827.56
2023-02-02T07:48:44.430Z,96841.72
2023-02-02T07:51:16.925Z,96845.06
2023-02-02T07:53:48.389Z,96856.16
2023-02-02T07:56:23.568Z,96849.81
2023-02-02T07:58:53.058Z,96854.22
2023-02-02T08:01:19.766Z,96851.91
2023-02-02T08:03:46.257Z,96853.69
2023-02-02T08:06:19.927Z,96847.75
2023-02-02T08:08:48.311Z,96849.94
2023-02-02T08:11:17.937Z,96850.59
2023-02-02T08:13:45.171Z,96856.97
2023-02-02T08:16:12.033Z,96841.88
2023-02-02T08:18:39.273Z,96833.69
2023-02-02T08:21:07.466Z,96840.28
2023-02-02T08:23:34.036Z,96839.91
2023-02-02T08:26:07.642Z,96841.41
2023-02-02T08:28:34.162Z,96841.06
2023-02-02T08:31:12.273Z,96851.22
2023-02-02T08:33:39.734Z,96847.78
2023-02-02T08:36:13.452Z,96836.09
2023-02-02T08:38:42.218Z,96841.91
2023-02-02T08:41:11.549Z,96854.31
2023-02-02T08:43:38.878Z,96862.66
2023-02-02T08:46:09.572Z,96862.88
2023-02-02T08:48:36.481Z,96864.78
2023-02-02T08:51:04.492Z,96876.22
2023-02-02T08:53:32.183Z,96875.97
2023-02-02T08:55:59.854Z,96870.28
2023-02-02T08:58:27.348Z,96872.63
2023-02-02T09:00:54.511Z,96886.22
2023-02-02T09:03:21.201Z,96881.47
2023-02-02T09:05:47.740Z,96886.59
2023-02-02T09:08:14.265Z,96894.56
2023-02-02T09:10:40.803Z,96895.03
2023-02-02T09:13:07.315Z,96885.25
2023-02-02T09:15:33.775Z,96891.81
2023-02-02T09:18:00.273Z,96887.53
2023-02-02T09:20:26.788Z,96876.81
2023-02-02T09:22:55.867Z,96875.66
2023-02-02T09:25:23.708Z,96881.19
2023-02-02T09:27:50.592Z,96881.59
2023-02-02T09:30:17.327Z,96882.75
2023-02-02T09:32:43.765Z,96884.09
2023-02-02T09:35:10.285Z,96890.72
2023-02-02T09:37:36.756Z,96879.09
2023-02-02T09:40:03.351Z,96885.84
2023-02-02T09:42:42.053Z,96881.09
2023-02-02T09:45:25.997Z,96888.50
2023-02-02T09:47:56.669Z,96884.00
2023-02-02T09:51:06.419Z,96885.41
2023-02-02T09:53:55.159Z,96881.16
2023-02-02T09:56:34.769Z,96886.97
2023-02-02T09:59:18.690Z,96880.81
2023-02-02T10:01:51.937Z,96884.28
2023-02-02T10:04:31.825Z,96880.56
2023-02-02T10:07:15.390Z,96886.72
2023-02-02T10:09:54.854Z,96897.66
2023-02-02T10:12:29.298Z,96891.59
2023-02-02T10:15:19.424Z,96893.88
2023-02-02T10:17:52.351Z,96891.97
2023-02-02T10:20:43.812Z,96893.72
2023-02-02T10:23:28.425Z,96901.25
2023-02-02T10:26:14.989Z,96908.13
2023-02-02T10:28:43.430Z,96914.50
2023-02-02T10:31:21.971Z,96907.41
2023-02-02T10:34:17.027Z,96915.78
2023-02-02T10:37:02.112Z,96910.94
2023-02-02T10:39:52.709Z,96919.53
2023-02-02T10:42:35.733Z,96919.66
2023-02-02T10:45:19.014Z,96922.63
2023-02-02T10:47:45.818Z,96923.41
2023-02-02T10:50:12.296Z,96921.72
2023-02-02T10:52:45.039Z,96914.31
2023-02-02T10:55:14.315Z,96916.81
2023-02-02T10:58:11.170Z,96911.25
2023-02-02T11:00:49.696Z,96915.91
2023-02-02T11:03:19.606Z,96917.06
2023-02-02T11:05:46.921Z,96916.09
2023-02-02T11:08:22.953Z,96932.38
2023-02-02T11:10:54.511Z,96929.75
2023-02-02T11:13:41.949Z,96920.38
2023-02-02T11:16:14.533Z,96925.84
2023-02-02T11:18:44.951Z,96921.81
2023-02-02T11:21:25.308Z,96929.13
2023-02-02T11:23:54.734Z,96920.78
2023-02-02T11:26:23.935Z,96923.63
2023-02-02T11:28:54.702Z,96904.06
2023-02-02T11:31:36.458Z,96924.44
2023-02-02T11:34:25.360Z,96921.16
2023-02-02T11:37:15.894Z,96925.38
2023-02-02T11:39:43.961Z,96924.22
2023-02-02T11:42:15.915Z,96926.28
2023-02-02T11:44:57.703Z,96923.91
2023-02-02T11:47:33.817Z,96913.31
2023-02-02T11:50:02.732Z,96913.47
2023-02-02T11:52:33.491Z,96920.28
2023-02-02T11:55:09.383Z,96918.50
2023-02-02T11:57:35.986Z,96914.97
2023-02-02T12:00:18.069Z,96903.97
2023-02-02T12:02:49.189Z,96895.34
2023-02-02T12:05:21.670Z,96890.94
2023-02-02T12:07:49.043Z,96896.03
2023-02-02T12:10:51.598Z,96891.09
2023-02-02T12:13:37.419Z,96886.72
2023-02-02T12:16:48.788Z,96882.13
2023-02-02T12:19:34.583Z,96880.31
2023-02-02T12:22:13.396Z,96879.91
2023-02-02T12:24:57.678Z,96865.47
2023-02-02T12:27:45.472Z,96875.25
2023-02-02T12:30:20.944Z,96866.75
2023-02-02T12:32:57.696Z,96870.00
2023-02-02T12:35:32.904Z,96870.94
2023-02-02T12:38:35.721Z,96875.41
2023-02-02T12:41:13.492Z,96868.91
2023-02-02T12:43:45.305Z,96864.97
2023-02-02T12:46:26.901Z,96864.53
2023-02-02T12:49:26.943Z,96864.00
2023-02-02T12:52:17.911Z,96858.69
2023-02-02T12:54:56.775Z,96859.94
2023-02-02T12:57:56.517Z,96868.19
2023-02-02T13:00:40.612Z,96868.44
2023-02-02T13:03:41.856Z,96866.59
2023-02-02T13:06:38.353Z,96876.63
2023-02-02T13:09:17.864Z,96877.34
2023-02-02T13:12:08.155Z,96874.69
2023-02-02T13:14:43.444Z,96876.91
2023-02-02T13:17:21.757Z,96874.69
2023-02-02T13:19:57.778Z,96886.03
2023-02-02T13:22:40.216Z,96877.59
2023-02-02T13:25:18.483Z,96874.41
2023-02-02T13:27:47.252Z,96867.13
2023-02-02T13:30:26.247Z,96867.97
2023-02-02T13:33:05.422Z,96865.94
2023-02-02T13:35:50.096Z,96875.63
2023-02-02T13:38:25.000Z,96868.13
2023-02-02T13:40:56.443Z,96870.19
2023-02-02T13:43:38.786Z,96871.13
2023-02-02T13:46:29.054Z,96863.56
2023-02-02T13:49:20.674Z,96874.75
2023-02-02T13:52:24.927Z,96880.47
2023-02-02T13:55:13.291Z,96883.56
2023-02-02T13:58:04.646Z,96886.22
2023-02-02T14:00:39.050Z,96874.81
2023-02-02T14:03:29.049Z,96872.47
2023-02-02T14:06:08.089Z,96879.50
2023-02-02T14:08:36.557Z,96879.22
2023-02-02T14:11:07.617Z,96878.47
2023-02-02T14:13:42.448Z,96883.03
2023-02-02T14:16:22.349Z,96880.78
2023-02-02T14:18:49.164Z,96887.94
2023-02-02T14:21:34.105Z,96895.00
2023-02-02T14:24:25.361Z,96894.03
2023-02-02T14:26:56.355Z,96900.25
2023-02-02T14:29:28.721Z,96905.78
2023-02-02T14:32:00.827Z,96905.44
2023-02-02T14:34:27.344Z,96918.72
2023-02-02T14:37:24.625Z,96918.97
2023-02-02T14:39:58.105Z,96918.16
2023-02-02T14:42:39.962Z,96927.59
2023-02-02T14:45:22.415Z,96928.94
2023-02-02T14:48:00.655Z,96928.72
2023-02-02T14:50:38.191Z,96927.50
2023-02-02T14:53:23.894Z,96926.44
2023-02-02T14:55:50.499Z,96922.75
2023-02-02T14:58:27.316Z,96922.97
2023-02-02T15:01:06.737Z,96919.28
2023-02-02T15:03:35.536Z,96923.84
2023-02-02T15:06:23.855Z,96927.75
2023-02-02T15:09:21.388Z,96930.69
2023-02-02T15:12:01.419Z,96925.28
2023-02-02T15:14:52.855Z,96931.81
2023-02-02T15:17:41.855Z,96923.75
2023-02-02T15:20:11.291Z,96917.38
2023-02-02T15:22:50.656Z,96926.66
2023-02-02T15:25:52.124Z,96926.09
2023-02-02T15:28:41.747Z,96923.06
2023-02-02T15:31:11.393Z,96920.28
2023-02-02T15:33:59.631Z,96923.75
2023-02-02T15:36:32.014Z,96932.81
2023-02-02T15:39:02.776Z,96932.78
2023-02-02T15:41:36.353Z,96927.66
2023-02-02T15:44:18.629Z,96932.94
2023-02-02T15:46:46.846Z,96944.03
2023-02-02T15:49:34.330Z,96931.78
2023-02-02T15:52:14.187Z,96929.22
2023-02-02T15:54:54.525Z,96936.34
2023-02-02T15:57:36.274Z,96935.78
2023-02-02T16:00:25.518Z,96935.47
2023-02-02T16:02:57.401Z,96932.78
2023-02-02T16:05:25.594Z,96949.22
2023-02-02T16:08:03.712Z,96958.50
2023-02-02T16:10:31.607Z,96952.03
2023-02-02T16:12:58.266Z,96967.31
2023-02-02T16:15:29.646Z,96964.25
2023-02-02T16:18:06.036Z,96972.88
2023-02-02T16:20:36.194Z,96980.84
2023-02-02T16:23:11.138Z,96980.78
2023-02-02T16:25:49.201Z,96980.88
2023-02-02T16:28:20.729Z,96992.41
2023-02-02T16:30:48.887Z,96985.78
2023-02-02T16:33:40.671Z,96996.19
2023-02-02T16:36:28.924Z,96995.06
2023-02-02T16:38:57.467Z,96997.09
2023-02-02T16:41:33.440Z,97004.16
2023-02-02T16:44:37.760Z,97011.88
2023-02-02T16:47:06.748Z,97000.91
2023-02-02T16:49:35.346Z,97001.97
2023-02-02T16:52:17.711Z,97006.25
2023-02-02T16:54:56.213Z,96997.19
2023-02-02T16:57:34.431Z,96996.84
2023-02-02T17:00:06.516Z,97003.97
2023-02-02T17:02:38.644Z,97012.34
2023-02-02T17:05:08.549Z,97012.22
2023-02-02T17:07:37.972Z,97027.84
2023-02-02T17:10:19.571Z,97030.72
2023-02-02T17:12:46.215Z,97031.88
2023-02-02T17:15:18.808Z,97029.75
2023-02-02T17:17:47.314Z,97028.78
2023-02-02T17:20:18.052Z,97024.03
2023-02-02T17:22:49.053Z,97025.81
2023-02-02T17:25:19.112Z,97034.75
2023-02-02T17:27:46.918Z,97034.53
2023-02-02T17:30:18.950Z,97042.88
2023-02-02T17:32:45.461Z,97041.31
2023-02-02T17:35:17.331Z,97033.34
2023-02-02T17:37:43.864Z,97036.78
2023-02-02T17:40:18.379Z,97042.00
2023-02-02T17:42:48.392Z,97031.03
2023-02-02T17:45:24.671Z,97031.66
2023-02-02T17:47:51.507Z,97026.66
2023-02-02T17:50:18.586Z,97029.72
2023-02-02T17:52:45.225Z,97026.16
2023-02-02T17:55:18.234Z,97030.44
2023-02-02T17:57:47.141Z,97035.97
2023-02-02T18:00:14.760Z,97023.31
2023-02-02T18:02:41.298Z,97020.66
2023-02-02T18:05:08.379Z,97027.31
2023-02-02T18:07:34.862Z,97027.72
2023-02-02T18:10:01.512Z,97025.44
2023-02-02T18:12:28.264Z,97020.59
2023-02-02T18:14:54.725Z,97015.88
2023-02-02T18:17:21.301Z,97019.69
2023-02-02T18:19:48.383Z,97018.78
2023-02-02T18:22:14.954Z,97012.41
2023-02-02T18:24:41.405Z,97003.28
2023-02-02T18:27:08.036Z,97008.19
2023-02-02T18:29:34.523Z,97007.19
2023-02-02T18:32:01.974Z,97015.09
2023-02-02T18:34:32.664Z,97012.19
2023-02-02T18:36:59.190Z,97009.16
2023-02-02T18:39:25.880Z,97006.56
2023-02-02T18:41:52.363Z,97013.19
2023-02-02T18:44:18.845Z,97012.63
2023-02-02T18:46:45.362Z,97018.25
2023-02-02T18:49:14.933Z,97006.97
2023-02-02T18:51:41.439Z,97011.34
2023-02-02T18:54:10.619Z,97011.34
2023-02-02T18:56:37.412Z,97015.31
2023-02-02T18:59:03.909Z,97017.03
2023-02-02T19:01:30.464Z,97023.84
2023-02-02T19:03:57.126Z,97018.31
2023-02-02T19:06:23.991Z,97025.72
2023-02-02T19:08:51.091Z,97024.66
2023-02-02T19:11:23.857Z,97025.50
2023-02-02T19:13:50.401Z,97014.66
2023-02-02T19:16:34.986Z,97027.63
2023-02-02T19:19:11.708Z,97021.59
2023-02-02T19:21:38.244Z,97018.88
2023-02-02T19:24:10.273Z,97036.56
2023-02-02T19:26:40.826Z,97026.94
2023-02-02T19:29:22.447Z,97026.19
2023-02-02T19:32:16.870Z,97020.97
2023-02-02T19:34:43.640Z,97023.59
2023-02-02T19:37:26.427Z,97025.06
2023-02-02T19:40:15.513Z,97024.13
2023-02-02T19:42:47.915Z,97035.81
2023-02-02T19:45:31.769Z,97031.66
2023-02-02T19:48:01.625Z,97032.06
2023-02-02T19:50:37.862Z,97029.97
2023-02-02T19:53:32.364Z,97036.88
2023-02-02T19:55:58.833Z,97029.94
2023-02-02T19:58:35.085Z,97037.28
2023-02-02T20:01:14.681Z,97037.69
2023-02-02T20:03:42.024Z,97031.66
2023-02-02T20:06:16.675Z,97030.94
2023-02-02T20:08:43.957Z,97033.88
2023-02-02T20:11:32.192Z,97045.94
2023-02-02T20:14:23.103Z,97041.44
2023-02-02T20:16:58.502Z,97034.94
2023-02-02T20:19:31.401Z,97033.88
2023-02-02T20:21:57.917Z,97036.16
2023-02-02T20:24:30.790Z,97026.50
2023-02-02T20:27:01.335Z,97030.59
2023-02-02T20:29:38.370Z,97030.16
2023-02-02T20:32:22.727Z,97031.75
2023-02-02T20:34:51.381Z,97021.31
2023-02-02T20:37:31.282Z,97035.41
2023-02-02T20:40:21.129Z,97023.72
2023-02-02T20:42:48.806Z,97029.34
2023-02-02T20:45:16.791Z,97026.84
2023-02-02T20:47:45.089Z,97027.13
2023-02-02T20:50:14.108Z,97029.59
2023-02-02T20:52:40.932Z,97026.78
2023-02-02T20:55:08.753Z,97023.97
2023-02-02T20:57:35.526Z,97031.22
2023-02-02T21:00:02.097Z,97026.19
2023-02-02T21:02:28.924Z,97030.78
2023-02-02T21:04:55.492Z,97035.50
2023-02-02T21:07:22.078Z,97031.19
2023-02-02T21:09:50.753Z,97032.63
2023-02-02T21:12:17.937Z,97030.53
2023-02-02T21:14:44.436Z,97032.22
2023-02-02T21:17:15.259Z,97030.41
2023-02-02T21:19:43.099Z,97030.34
2023-02-02T21:22:12.252Z,97029.34
2023-02-02T21:24:38.890Z,97038.44
2023-02-02T21:27:05.562Z,97033.50
2023-02-02T21:29:32.953Z,97034.31
2023-02-02T21:31:59.671Z,97036.22
2023-02-02T21:34:26.671Z,97039.84
2023-02-02T21:36:58.782Z,97034.03
2023-02-02T21:39:35.412Z,97034.16
2023-02-02T21:42:07.692Z,97042.22
2023-02-02T21:44:39.009Z,97042.31
2023-02-02T21:47:21.251Z,97043.63
2023-02-02T21:49:47.860Z,97044.22
2023-02-02T21:52:17.696Z,97042.03
2023-02-02T21:54:45.067Z,97052.28
2023-02-02T21:57:20.362Z,97053.16
2023-02-02T21:59:54.010Z,97057.97
2023-02-02T22:02:26.358Z,97056.34
2023-02-02T22:04:57.735Z,97064.63
2023-02-02T22:07:26.127Z,97067.28
2023-02-02T22:09:54.849Z,97070.97
2023-02-02T22:12:24.208Z,97069.91
2023-02-02T22:15:01.445Z,97078.72
2023-02-02T22:17:34.115Z,97085.16
2023-02-02T22:20:31.840Z,97074.09
2023-02-02T22:23:00.701Z,97077.44
2023-02-02T22:25:36.991Z,97083.66
2023-02-02T22:28:23.637Z,97081.59
2023-02-02T22:30:52.460Z,97084.53
2023-02-02T22:33:20.047Z,97083.41
2023-02-02T22:35:46.645Z,97079.56
2023-02-02T22:38:18.290Z,97082.78
2023-02-02T22:40:45.548Z,97092.06
2023-02-02T22:43:12.763Z,97079.22
2023-02-02T22:45:39.572Z,97081.75
2023-02-02T22:48:06.123Z,97088.63
2023-02-02T22:50:32.621Z,97092.72
2023-02-02T22:52:59.095Z,97096.28
2023-02-02T22:55:26.330Z,97096.59
2023-02-02T22:57:53.179Z,97098.78
2023-02-02T23:00:26.312Z,97103.81
2023-02-02T23:02:54.662Z,97110.53
2023-02-02T23:05:22.850Z,97106.53
2023-02-02T23:07:50.468Z,97103.59
2023-02-02T23:10:22.554Z,97109.56
2023-02-02T23:12:49.486Z,97119.28
2023-02-02T23:15:16.027Z,97118.44
2023-02-02T23:17:42.720Z,97118.25
2023-02-02T23:20:12.892Z,97121.81
2023-02-02T23:22:39.424Z,97134.44
2023-02-02T23:25:06.257Z,97138.50
2023-02-02T23:27:32.919Z,97142.50
2023-02-02T23:29:59.412Z,97138.41
2023-02-02T23:32:26.041Z,97146.25
2023-02-02T23:34:52.548Z,97156.09
2023-02-02T23:37:19.082Z,97150.06
2023-02-02T23:39:45.568Z,97149.72
2023-02-02T23:42:12.101Z,97147.13
2023-02-02T23:44:38.631Z,97148.28
2023-02-02T23:47:06.474Z,97155.00
2023-02-02T23:49:33.890Z,97157.19
2023-02-02T23:52:00.839Z,97156.56
2023-02-02T23:54:28.888Z,97152.41
2023-02-02T23:56:56.826Z,97151.91
2023-02-02T23:59:23.444Z,97157.56
